• Join FlightAware (Why Join?)
  • Login
  • US Flag 
02:25PM EDT


 

Airport Tracker/Info


-or-


 

Live Flight TrackerFlight Track Log ✈ DAL2369 ✈ 05-Jun-2013 ✈ KATL - KMCO

Flight Track Log - Related Links

Times and Time Zones

All times are in EDT time to prevent confusion due to time zone crossing. See the DAL2369 flight status page for this flight to view local times or setup timezone preferences in your user account.

Time Position Orientation Groundspeed Altitude Reporting Facility
EDT Latitude Longitude Course Direction KTS MPH feet Rate Location/Type
12:52PM 33.6380 -84.4380 North  Level FlightAware
12:55PM 33.6380 -84.4370 90° East 9 10 60 Level FlightAware
12:57PM 33.5733 -84.2667 180° South  Level FlightAware Approximate
12:58PM 33.4864 -84.2667 180° South  Level FlightAware Approximate
12:59PM 33.3994 -84.2667 180° South  Level FlightAware Approximate
12:59PM 33.6380 -84.4340 180° South 30 35  Level FlightAware
12:59PM 33.6370 -84.4340 180° South 28 32 60 Level FlightAware
01:00PM 33.6370 -84.4400 270° West 19 22 120 Level FlightAware
01:01PM 33.6370 -84.4410 270° West 18 21 120 Level FlightAware
01:03PM 33.5733 -84.2667 180° South  Level FlightAware Approximate
01:04PM 33.4864 -84.2667 180° South  Level FlightAware Approximate
01:05PM 33.3994 -84.2667 180° South  Level FlightAware Approximate
01:06PM 33.3140 -84.2493 168° South  Level FlightAware Approximate
01:07PM 33.2289 -84.2280 168° South  Level FlightAware Approximate
01:08PM 33.1438 -84.2067 168° South  Level FlightAware Approximate
01:09PM 33.6370 -84.4450 90° East 10 12  Level FlightAware
01:09PM 33.6370 -84.4430 90° East 55 63 1,020 Level FlightAware
01:10PM 33.6370 -84.4350 90° East 120 138 1,740 Level FlightAware
01:10PM 33.6370 -84.4080 90° East 180 207 1,300 2,580 Climbing FlightAware
01:10PM 33.6370 -84.3910 90° East 188 216 1,900 2,280 Climbing FlightAware
01:10PM 33.6360 -84.3820 98° East 192 221 2,300 720 Climbing FlightAware
01:11PM 33.6270 -84.3530 110° East 198 228 2,500 1,980 Climbing FlightAware
01:12PM 33.6120 -84.3010 109° East 258 297 4,500 3,960 Climbing FlightAware
01:12PM 33.5980 -84.2830 133° Southeast 264 304 5,300 2,760 Climbing FlightAware
01:12PM 33.5870 -84.2770 156° South 268 308 5,700 2,760 Climbing FlightAware
01:12PM 33.5650 -84.2750 176° South 272 313 6,600 2,820 Climbing FlightAware
01:13PM 33.5280 -84.2760 181° South 281 323 7,900 2,760 Climbing FlightAware
01:13PM 33.4910 -84.2770 181° South 288 331 9,200 2,580 Climbing FlightAware
01:14PM 33.4430 -84.2770 180° South 299 344 10,700 1,800 Climbing FlightAware
01:15PM 33.3740 -84.2730 177° South 347 399 11,700 1,500 Climbing FlightAware
01:15PM 33.3060 -84.2550 168° South 373 429 12,900 2,460 Climbing FlightAware
01:16PM 33.2410 -84.2370 167° South 366 421 15,000 2,520 Climbing FlightAware
01:17PM 33.1650 -84.2160 167° South 378 435 16,500 1,860 Climbing FlightAware
01:17PM 33.0860 -84.1940 167° South 394 453 17,800 1,680 Climbing FlightAware
01:18PM 33.0140 -84.1740 167° South 407 468 18,900 1,740 Climbing FlightAware
01:19PM 32.9330 -84.1430 162° South 417 480 20,300 1,800 Climbing FlightAware
01:19PM 32.8710 -84.1170 161° South 421 484 21,300 1,140 Climbing FlightAware
01:20PM 32.7640 -84.0720 161° South 427 491 22,200 480 Climbing FlightAware
01:21PM 32.6910 -84.0400 160° South 427 491 22,200  Level FlightAware
01:22PM 32.6280 -84.0130 160° South 427 491 22,200 1,740 Level FlightAware
01:23PM 32.4920 -83.9600 162° South 456 525 25,000 1,440 Climbing FlightAware
01:24PM 32.3490 -83.9000 160° South 457 526 25,300 1,260 Climbing FlightAware
01:25PM 32.2110 -83.8460 162° South 468 539 27,800 1,320 Climbing FlightAware
01:26PM 32.1330 -83.8120 160° South 470 541 28,100 180 Climbing FlightAware
01:27PM 32.0700 -83.7860 161° South 470 541 28,100  Level FlightAware
01:27PM 31.9830 -83.7480 160° South 470 541 28,100  Level FlightAware
01:28PM 31.9190 -83.7210 160° South 470 541 28,100  Level FlightAware
01:29PM 31.8390 -83.6860 160° South 470 541 28,100  Level FlightAware
01:29PM 31.7770 -83.6600 160° South 470 541 28,100 2,880 Level FlightAware
01:30PM 31.6053 -83.5708 160° South 476 548 31,000 2,040 Climbing Jacksonville Center
01:31PM 31.5075 -83.5042 150° Southeast 476 548 31,000  Level Jacksonville Center
01:32PM 31.3950 -83.4256 149° Southeast 471 542 31,000  Level Jacksonville Center
01:33PM 31.2825 -83.3472 149° Southeast 471 542 31,000 -300 Level Jacksonville Center
01:34PM 31.1681 -83.2689 150° Southeast 471 542 30,400 -960 Descending Jacksonville Center
01:35PM 31.0533 -83.2078 155° Southeast 458 527 29,100 -1,320 Descending Jacksonville Center
01:36PM 30.9386 -83.1492 156° South 453 521 27,800 -1,080 Descending Jacksonville Center
01:37PM 30.8447 -83.0692 144° Southeast 433 498 27,000 -420 Descending Jacksonville Center
01:38PM 30.7406 -82.9892 147° Southeast 418 481 27,000  Level Jacksonville Center
01:39PM 30.6464 -82.9264 150° Southeast 418 481 27,000 -540 Level Jacksonville Center
01:40PM 30.5358 -82.8467 148° Southeast 423 487 26,000 -1,020 Descending Jacksonville Center
01:41PM 30.4397 -82.7794 149° Southeast 418 481 25,000 -540 Descending Jacksonville Center
01:42PM 30.3500 -82.7097 146° Southeast 413 475 25,000  Level Jacksonville Center
01:43PM 30.2789 -82.6375 139° Southeast 391 450 25,000  Level Jacksonville Center
01:44PM 30.2014 -82.5561 138° Southeast 380 437 25,000  Level Jacksonville Center
01:45PM 30.1239 -82.4722 137° Southeast 375 432 25,000  Level Jacksonville Center
01:46PM 30.0631 -82.3767 126° Southeast 369 425 25,000  Level Jacksonville Center
01:47PM 30.0042 -82.2761 124° Southeast 378 435 25,000 -180 Level Jacksonville Center
01:48PM 29.9264 -82.2025 141° Southeast 378 435 24,700 -1,260 Descending Jacksonville Center
01:53PM 29.4060 -82.1420 141° Southeast 319 367 17,000 -1,260 Descending FlightAware
01:54PM 29.3600 -82.1120 150° Southeast 319 367 16,900 -1,620 Descending FlightAware
01:55PM 29.3030 -82.0650 144° Southeast 311 358 14,700 -1,680 Descending FlightAware
01:56PM 29.2550 -82.0280 146° Southeast 311 358 14,500 -180 Descending FlightAware
01:56PM 29.2170 -81.9990 146° Southeast 311 358 14,500 -1,440 Level FlightAware
01:58PM 29.0690 -81.8900 147° Southeast 290 334 10,900 -1,440 Descending FlightAware
01:59PM 29.0250 -81.8570 147° Southeast 292 336 10,900  Level FlightAware
01:59PM 28.9870 -81.8280 146° Southeast 292 336 10,900 -900 Level FlightAware
02:00PM 28.9430 -81.7960 148° Southeast 287 330 9,900 -1,020 Descending FlightAware
02:00PM 28.9170 -81.7760 146° Southeast 287 330 9,900  Level FlightAware
02:01PM 28.8960 -81.7600 146° Southeast 287 330 9,900  Level FlightAware
02:01PM 28.8750 -81.7430 145° Southeast 287 330 9,900  Level FlightAware
02:02PM 28.8510 -81.7250 147° Southeast 287 330 9,900 -3,000 Level FlightAware
02:02PM 28.8372 -81.6908 147° Southeast 286 329 7,900 -2,340 Descending Jacksonville Center
02:03PM 28.7947 -81.6228 125° Southeast 272 313 7,000 -720 Descending Jacksonville Center
02:09PM 28.6460 -81.3440 125° Southeast 228 262 2,900 -660 Descending FlightAware
02:09PM 28.6320 -81.3390 163° South 211 243 2,900  Level FlightAware
02:09PM 28.6290 -81.3380 164° South 209 241 2,900 -180 Level FlightAware
02:10PM 28.6180 -81.3340 162° South 202 232 2,800 -420 Descending FlightAware
02:10PM 28.5950 -81.3290 169° South 197 227 2,500 -660 Descending FlightAware
02:11PM 28.5770 -81.3240 166° South 183 211 2,200 -720 Descending FlightAware
02:11PM 28.5630 -81.3240 180° South 182 209 1,900 -660 Descending FlightAware